Time;durP1;ratioP1;P1;durP2;ratioP2;P2;SDS_P1;SDS_P2;PMS_P1;PMS_P2;Temp;Humidity;BMP_temperature;BMP_pressure;BME280_temperature;BME280_humidity;BME280_pressure;Samples;Min_cycle;Max_cycle;Signal;HPM_P1;HPM_P2
2023/12/23 00:02:12;;;;;;;3.40;0.85;;;22.80;99.90;;;;;;4993080;28;20233;-77
2023/12/23 00:04:43;;;;;;;4.25;1.10;;;22.80;99.90;;;;;;4994697;28;20726;-77
2023/12/23 00:07:14;;;;;;;3.15;1.00;;;22.80;99.90;;;;;;5013537;28;20214;-77
2023/12/23 00:09:47;;;;;;;3.83;0.98;;;22.90;99.90;;;;;;4998834;28;20215;-79
2023/12/23 00:12:18;;;;;;;3.13;1.00;;;23.00;99.90;;;;;;5033125;28;20676;-79
2023/12/23 00:14:49;;;;;;;5.80;1.40;;;23.10;99.90;;;;;;4990335;28;20568;-78
2023/12/23 00:17:19;;;;;;;3.97;1.10;;;23.30;99.90;;;;;;4992548;28;20286;-79
2023/12/23 00:19:50;;;;;;;4.20;1.08;;;23.40;99.90;;;;;;5073975;28;20287;-80
2023/12/23 00:22:21;;;;;;;3.35;1.00;;;23.50;99.90;;;;;;5073765;28;20222;-80
2023/12/23 00:24:54;;;;;;;2.15;0.77;;;23.70;99.90;;;;;;4991480;28;20576;-78
2023/12/23 00:27:25;;;;;;;2.50;0.85;;;23.70;99.90;;;;;;4989658;28;20195;-78
2023/12/23 00:29:55;;;;;;;2.00;0.80;;;23.80;99.90;;;;;;4977564;28;20576;-78
2023/12/23 00:32:26;;;;;;;2.22;0.80;;;23.90;99.90;;;;;;4992494;28;20594;-79
2023/12/23 00:34:57;;;;;;;3.00;0.70;;;23.90;99.90;;;;;;4996540;28;20543;-79
2023/12/23 00:37:28;;;;;;;2.15;0.82;;;23.80;99.90;;;;;;4998179;28;20195;-79
2023/12/23 00:40:03;;;;;;;2.92;0.90;;;23.90;99.90;;;;;;4990929;28;20209;-79
2023/12/23 00:42:34;;;;;;;4.35;1.10;;;24.00;99.90;;;;;;4988451;28;20224;-79
2023/12/23 00:45:05;;;;;;;3.78;1.13;;;24.00;99.90;;;;;;4980840;28;20187;-78
2023/12/23 00:47:36;;;;;;;4.63;1.00;;;24.00;99.90;;;;;;4984477;28;20205;-79
2023/12/23 00:50:07;;;;;;;3.00;0.80;;;24.00;99.90;;;;;;4985199;28;20199;-78
2023/12/23 00:52:38;;;;;;;3.13;0.80;;;24.00;99.90;;;;;;4991856;28;20198;-78
2023/12/23 00:55:11;;;;;;;1.30;0.60;;;23.90;99.90;;;;;;4997250;28;20629;-79
2023/12/23 00:57:42;;;;;;;2.45;0.90;;;24.00;99.90;;;;;;5008406;28;20254;-80
2023/12/23 01:00:13;;;;;;;1.50;0.77;;;24.00;99.90;;;;;;5001351;28;20206;-79
2023/12/23 01:02:44;;;;;;;2.67;0.80;;;24.10;99.90;;;;;;4997146;28;20238;-78
2023/12/23 01:05:15;;;;;;;2.92;1.10;;;24.20;99.90;;;;;;4988626;28;20214;-80
2023/12/23 01:07:47;;;;;;;2.78;1.00;;;24.30;99.90;;;;;;4987915;28;20697;-79
2023/12/23 01:10:24;;;;;;;2.05;0.93;;;24.50;99.90;;;;;;4988117;28;20229;-79
2023/12/23 01:12:55;;;;;;;2.90;1.00;;;24.60;99.90;;;;;;4988371;28;20712;-80
2023/12/23 01:15:25;;;;;;;3.22;0.80;;;24.80;99.90;;;;;;4997293;28;20217;-79
2023/12/23 01:17:56;;;;;;;2.85;0.80;;;24.90;99.90;;;;;;4981619;28;20221;-79
2023/12/23 01:20:27;;;;;;;3.72;0.82;;;24.90;99.90;;;;;;4995394;28;20218;-81
2023/12/23 01:22:58;;;;;;;3.25;0.90;;;24.90;99.90;;;;;;4989271;28;20318;-81
2023/12/23 01:25:31;;;;;;;4.07;0.77;;;24.90;99.90;;;;;;4989093;28;20199;-80
2023/12/23 01:28:04;;;;;;;3.35;1.13;;;25.00;99.90;;;;;;4988624;28;20222;-80
2023/12/23 01:30:35;;;;;;;5.45;0.82;;;25.20;99.90;;;;;;4989635;28;20310;-80
2023/12/23 01:33:07;;;;;;;2.47;0.77;;;25.20;99.90;;;;;;4992786;28;20229;-80
2023/12/23 01:35:39;;;;;;;2.25;0.95;;;25.10;99.90;;;;;;4989195;28;20194;-81
2023/12/23 01:38:10;;;;;;;2.78;1.00;;;25.00;99.90;;;;;;4988521;28;20244;-80
2023/12/23 01:40:42;;;;;;;3.45;0.90;;;25.00;99.90;;;;;;4989190;28;20203;-80
2023/12/23 01:43:13;;;;;;;3.33;0.70;;;25.00;99.90;;;;;;4988966;28;20258;-80
2023/12/23 01:45:44;;;;;;;1.88;0.88;;;25.10;99.90;;;;;;4986342;28;20199;-80
2023/12/23 01:48:15;;;;;;;2.13;0.60;;;24.90;99.90;;;;;;4992416;28;20221;-80
2023/12/23 01:50:46;;;;;;;2.47;0.70;;;24.90;99.90;;;;;;4987383;28;20205;-79
2023/12/23 01:53:17;;;;;;;1.48;0.60;;;24.90;99.90;;;;;;4988354;28;20199;-80
2023/12/23 01:55:51;;;;;;;3.40;0.90;;;25.10;99.90;;;;;;4996674;28;20202;-79
2023/12/23 01:58:23;;;;;;;4.25;0.90;;;25.20;99.90;;;;;;4989342;28;20286;-80
2023/12/23 02:00:54;;;;;;;3.97;0.90;;;25.30;99.90;;;;;;4997480;28;20198;-80
2023/12/23 02:03:26;;;;;;;6.95;1.02;;;25.20;99.90;;;;;;4995403;28;20234;-80
2023/12/23 02:05:56;;;;;;;1.48;0.80;;;25.10;99.90;;;;;;4993739;28;20208;-80
2023/12/23 02:08:27;;;;;;;4.10;0.65;;;24.90;99.90;;;;;;4991030;28;20266;-82
2023/12/23 02:11:06;;;;;;;3.58;0.70;;;24.80;99.90;;;;;;5001988;28;20197;-81
2023/12/23 02:13:43;;;;;;;4.65;0.88;;;24.70;99.90;;;;;;5008606;28;20199;-81
2023/12/23 02:16:15;;;;;;;3.83;0.77;;;24.70;99.90;;;;;;4995752;28;20202;-81
2023/12/23 02:18:46;;;;;;;2.58;0.77;;;24.70;99.90;;;;;;4985616;28;20242;-81
2023/12/23 02:21:18;;;;;;;2.30;0.60;;;24.80;99.90;;;;;;4985710;28;20305;-81
2023/12/23 02:23:49;;;;;;;3.65;0.80;;;24.90;99.90;;;;;;5000093;28;20230;-82
2023/12/23 02:26:24;;;;;;;4.43;0.47;;;25.10;99.90;;;;;;4988330;28;20596;-82
2023/12/23 02:28:56;;;;;;;3.50;0.70;;;25.20;99.90;;;;;;4968754;28;20206;-81
2023/12/23 02:31:27;;;;;;;2.53;0.60;;;25.10;99.90;;;;;;4974568;28;20705;-82
2023/12/23 02:33:59;;;;;;;2.20;0.60;;;25.20;99.90;;;;;;4988268;28;20211;-81
2023/12/23 02:36:31;;;;;;;2.53;0.73;;;25.20;99.90;;;;;;4988200;28;20203;-82
2023/12/23 02:39:03;;;;;;;5.43;0.80;;;25.20;99.90;;;;;;4988232;28;20598;-82
2023/12/23 02:41:34;;;;;;;3.35;0.90;;;25.30;99.90;;;;;;5091240;28;20187;-81
2023/12/23 02:44:05;;;;;;;2.33;0.60;;;25.40;99.90;;;;;;5047976;28;20573;-81
2023/12/23 02:46:37;;;;;;;3.03;0.93;;;25.40;99.90;;;;;;4988410;28;20205;-82
2023/12/23 02:49:08;;;;;;;4.20;0.88;;;25.40;99.90;;;;;;4987772;28;20278;-82
2023/12/23 02:51:40;;;;;;;3.47;0.70;;;25.20;99.90;;;;;;4991267;28;20244;-81
2023/12/23 02:54:11;;;;;;;1.90;0.90;;;25.20;99.90;;;;;;4991520;28;20677;-81
2023/12/23 02:56:42;;;;;;;4.47;0.80;;;25.20;99.90;;;;;;4995032;28;20198;-81
2023/12/23 02:59:13;;;;;;;3.33;0.75;;;25.10;99.90;;;;;;4991460;28;20289;-81
2023/12/23 03:01:44;;;;;;;2.50;0.73;;;25.00;99.90;;;;;;4991204;28;20689;-81
2023/12/23 03:04:15;;;;;;;4.50;0.70;;;25.10;99.90;;;;;;4991180;28;20576;-81
2023/12/23 03:06:48;;;;;;;3.83;0.93;;;25.10;99.90;;;;;;4988534;28;20199;-80
2023/12/23 03:09:18;;;;;;;3.75;0.65;;;25.10;99.90;;;;;;4990409;28;20280;-81
2023/12/23 03:11:49;;;;;;;4.47;0.90;;;25.10;99.90;;;;;;4993971;28;20638;-81
2023/12/23 03:14:20;;;;;;;6.10;0.90;;;25.20;99.90;;;;;;5000082;28;20202;-81
2023/12/23 03:16:51;;;;;;;3.80;0.60;;;25.10;99.90;;;;;;4990310;28;20203;-80
2023/12/23 03:19:22;;;;;;;3.63;0.95;;;25.20;99.90;;;;;;4990713;28;20202;-79
2023/12/23 03:21:54;;;;;;;5.47;0.90;;;25.40;99.90;;;;;;4990708;28;20194;-80
2023/12/23 03:24:25;;;;;;;4.03;0.90;;;25.30;99.90;;;;;;4994522;28;20203;-78
2023/12/23 03:26:56;;;;;;;4.63;0.70;;;25.30;99.90;;;;;;5007024;28;20254;-80
2023/12/23 03:29:27;;;;;;;2.85;0.73;;;25.20;99.90;;;;;;4998066;28;20198;-80
2023/12/23 03:31:57;;;;;;;2.92;0.90;;;25.00;99.90;;;;;;4997785;28;20210;-80
2023/12/23 03:34:28;;;;;;;3.92;0.90;;;25.10;99.90;;;;;;4990016;28;20199;-80
2023/12/23 03:37:01;;;;;;;3.92;0.73;;;25.10;99.90;;;;;;4990499;28;20285;-80
2023/12/23 03:39:31;;;;;;;3.50;0.90;;;25.20;99.90;;;;;;4990828;28;20209;-81
2023/12/23 03:42:02;;;;;;;3.72;0.80;;;25.20;99.90;;;;;;4990761;28;20205;-80
2023/12/23 03:44:36;;;;;;;2.15;0.75;;;25.20;99.90;;;;;;4990808;28;20208;-80
2023/12/23 03:47:07;;;;;;;2.80;0.90;;;25.20;99.90;;;;;;4992898;28;20207;-79
2023/12/23 03:49:38;;;;;;;2.90;0.88;;;25.40;99.90;;;;;;4971525;28;20238;-80
2023/12/23 03:52:12;;;;;;;2.22;0.80;;;25.50;99.90;;;;;;4970857;28;20199;-80
2023/12/23 03:54:42;;;;;;;2.92;0.70;;;25.50;99.90;;;;;;4971185;28;20223;-80
2023/12/23 03:57:13;;;;;;;3.45;0.82;;;25.50;99.90;;;;;;4971300;28;20279;-80
2023/12/23 03:59:44;;;;;;;3.22;0.90;;;25.40;99.90;;;;;;4977875;28;20665;-78
2023/12/23 04:02:15;;;;;;;5.75;1.00;;;25.50;99.90;;;;;;4989221;28;20591;-81
2023/12/23 04:04:46;;;;;;;2.50;0.80;;;25.60;99.90;;;;;;4993524;28;20203;-80
2023/12/23 04:07:18;;;;;;;4.10;1.10;;;25.70;99.90;;;;;;4989922;28;20687;-80
2023/12/23 04:09:51;;;;;;;3.33;0.70;;;25.70;99.90;;;;;;4986457;28;20672;-76
2023/12/23 04:12:22;;;;;;;5.03;0.80;;;25.60;99.90;;;;;;4987083;28;22042;-77
2023/12/23 04:14:52;;;;;;;2.78;0.70;;;25.60;99.90;;;;;;4989869;28;20187;-77
2023/12/23 04:17:23;;;;;;;2.90;0.73;;;25.60;99.90;;;;;;4997270;28;20187;-76
2023/12/23 04:19:54;;;;;;;2.38;0.82;;;25.70;99.90;;;;;;4981955;28;20234;-76
2023/12/23 04:22:27;;;;;;;2.97;0.90;;;25.70;99.90;;;;;;4984989;28;20321;-78
2023/12/23 04:24:57;;;;;;;2.90;0.60;;;25.80;99.90;;;;;;4979025;28;20203;-78
2023/12/23 04:27:28;;;;;;;2.67;0.70;;;25.90;99.90;;;;;;4983848;28;20218;-77
2023/12/23 04:29:59;;;;;;;3.22;1.00;;;26.00;99.90;;;;;;4988615;28;20210;-77
2023/12/23 04:32:30;;;;;;;3.53;0.80;;;26.00;99.90;;;;;;4991511;28;20744;-78
2023/12/23 04:35:01;;;;;;;4.28;0.60;;;25.80;99.90;;;;;;5005378;28;20194;-77
2023/12/23 04:37:34;;;;;;;2.47;0.60;;;25.90;99.90;;;;;;4989483;28;20200;-76
2023/12/23 04:40:04;;;;;;;3.83;0.77;;;25.90;99.90;;;;;;4992174;28;20213;-76
2023/12/23 04:42:35;;;;;;;3.80;0.68;;;26.00;99.90;;;;;;4989356;28;20209;-77
2023/12/23 04:45:06;;;;;;;3.75;0.90;;;26.10;99.90;;;;;;4989806;28;20217;-76
2023/12/23 04:47:37;;;;;;;1.10;0.40;;;26.30;99.90;;;;;;4989229;28;20195;-77
2023/12/23 04:50:09;;;;;;;3.47;0.77;;;26.30;99.90;;;;;;4988984;28;20187;-77
2023/12/23 04:52:41;;;;;;;2.15;0.60;;;26.30;99.90;;;;;;5002746;28;20208;-76
2023/12/23 04:55:12;;;;;;;2.15;0.50;;;26.30;99.90;;;;;;4994621;28;20667;-78
2023/12/23 04:57:43;;;;;;;3.70;0.70;;;26.40;99.90;;;;;;5018899;28;20203;-78
2023/12/23 05:00:15;;;;;;;4.70;0.65;;;26.40;99.90;;;;;;4990445;28;20203;-78
2023/12/23 05:02:46;;;;;;;3.22;0.70;;;26.40;99.90;;;;;;4989172;28;20230;-77
2023/12/23 05:05:17;;;;;;;2.35;0.60;;;26.20;99.90;;;;;;4988688;28;20199;-77
2023/12/23 05:07:49;;;;;;;1.40;0.40;;;26.00;99.90;;;;;;4988521;28;20207;-76
2023/12/23 05:10:20;;;;;;;4.53;0.77;;;26.10;99.90;;;;;;4984052;28;20653;-76
2023/12/23 05:12:51;;;;;;;3.70;0.63;;;26.30;99.90;;;;;;4991173;28;20285;-77
2023/12/23 05:15:22;;;;;;;3.72;0.90;;;26.20;99.90;;;;;;4988786;28;20197;-78
2023/12/23 05:17:53;;;;;;;4.63;0.80;;;25.90;99.90;;;;;;5002577;28;20203;-77
2023/12/23 05:20:23;;;;;;;4.60;0.73;;;25.70;99.90;;;;;;5080823;28;20320;-77
2023/12/23 05:22:56;;;;;;;3.08;0.70;;;25.90;99.90;;;;;;4988791;28;20233;-78
2023/12/23 05:25:27;;;;;;;1.23;0.52;;;25.80;99.90;;;;;;4982974;28;20588;-76
2023/12/23 05:27:58;;;;;;;2.67;0.50;;;25.60;99.90;;;;;;4986678;28;20431;-78
2023/12/23 05:30:29;;;;;;;2.38;0.52;;;25.30;99.90;;;;;;4992260;28;20260;-78
2023/12/23 05:32:59;;;;;;;3.58;0.70;;;25.40;99.90;;;;;;4972307;28;20218;-77
2023/12/23 05:35:30;;;;;;;1.55;0.55;;;25.60;99.90;;;;;;4968997;28;20203;-78
2023/12/23 05:38:03;;;;;;;4.03;0.80;;;25.60;99.90;;;;;;4976176;28;20286;-76
2023/12/23 05:40:34;;;;;;;2.10;0.60;;;25.80;99.90;;;;;;4984868;28;20233;-77
2023/12/23 05:43:06;;;;;;;4.13;1.00;;;26.10;99.90;;;;;;4977621;28;20586;-77
2023/12/23 05:45:37;;;;;;;2.92;0.80;;;26.30;99.90;;;;;;4974534;28;20230;-77
2023/12/23 05:48:08;;;;;;;2.83;0.85;;;26.50;99.90;;;;;;4997836;28;20215;-78
2023/12/23 05:50:39;;;;;;;4.10;1.00;;;26.70;99.90;;;;;;4979300;28;20191;-78
2023/12/23 05:53:12;;;;;;;1.80;0.63;;;27.10;99.90;;;;;;4972808;28;20219;-76
2023/12/23 05:55:42;;;;;;;2.55;0.60;;;27.30;99.90;;;;;;4983493;28;20219;-78
2023/12/23 05:58:13;;;;;;;3.22;1.00;;;27.20;99.90;;;;;;4970150;28;20203;-77
2023/12/23 06:00:44;;;;;;;3.83;0.90;;;27.00;99.90;;;;;;4977142;28;20195;-77
2023/12/23 06:03:15;;;;;;;2.88;0.80;;;27.10;99.90;;;;;;4997006;28;20226;-78
2023/12/23 06:05:46;;;;;;;2.75;0.75;;;27.30;99.90;;;;;;4975492;28;20195;-77
2023/12/23 06:08:20;;;;;;;3.10;0.80;;;27.20;99.90;;;;;;4988039;28;20209;-78
2023/12/23 06:10:51;;;;;;;4.45;0.93;;;26.90;99.90;;;;;;4972971;28;20211;-78
2023/12/23 06:13:21;;;;;;;3.72;1.00;;;26.70;99.90;;;;;;4977248;28;20688;-77
2023/12/23 06:15:52;;;;;;;3.50;0.90;;;26.60;99.90;;;;;;4979132;28;20241;-78
2023/12/23 06:18:23;;;;;;;3.72;0.75;;;26.50;99.90;;;;;;4984259;28;20194;-77
2023/12/23 06:20:54;;;;;;;1.42;0.60;;;26.30;99.90;;;;;;4979364;28;20299;-78
2023/12/23 06:23:26;;;;;;;4.78;1.02;;;26.20;99.90;;;;;;4987613;28;20788;-79
2023/12/23 06:25:57;;;;;;;3.38;0.90;;;25.90;99.90;;;;;;4988966;28;20202;-78
2023/12/23 06:28:28;;;;;;;3.20;0.90;;;25.50;99.90;;;;;;4987929;28;20574;-78
2023/12/23 06:30:59;;;;;;;6.70;1.10;;;25.40;99.90;;;;;;4986884;28;20219;-77
2023/12/23 06:33:30;;;;;;;2.20;1.08;;;25.20;99.90;;;;;;4986881;28;20592;-76
2023/12/23 06:36:00;;;;;;;4.72;0.90;;;25.00;99.90;;;;;;4980975;28;20218;-77
2023/12/23 06:38:33;;;;;;;3.25;1.05;;;24.90;99.90;;;;;;4987428;28;20282;-78
2023/12/23 06:41:04;;;;;;;2.95;0.90;;;24.80;99.90;;;;;;4995759;28;20676;-77
2023/12/23 06:43:35;;;;;;;4.43;0.90;;;24.70;99.90;;;;;;4983406;28;20227;-77
2023/12/23 06:46:06;;;;;;;4.47;0.93;;;24.50;99.90;;;;;;4987211;28;20226;-77
2023/12/23 06:48:37;;;;;;;4.32;0.90;;;24.50;99.90;;;;;;4991502;28;20619;-77
2023/12/23 06:51:08;;;;;;;2.33;0.70;;;24.30;99.90;;;;;;4982565;28;20622;-77
2023/12/23 06:53:41;;;;;;;3.25;0.85;;;24.30;99.90;;;;;;4980925;28;20275;-77
2023/12/23 06:56:13;;;;;;;2.95;0.75;;;24.40;99.90;;;;;;4989281;28;20198;-76
2023/12/23 06:58:45;;;;;;;3.75;0.80;;;24.40;99.90;;;;;;4987085;28;20191;-78
2023/12/23 07:01:15;;;;;;;4.60;0.95;;;24.40;99.90;;;;;;4982203;28;20192;-77
2023/12/23 07:03:46;;;;;;;5.57;1.00;;;24.50;99.90;;;;;;4983946;28;20229;-77
2023/12/23 07:06:17;;;;;;;5.35;1.10;;;24.60;99.90;;;;;;4990294;28;20198;-77
2023/12/23 07:08:50;;;;;;;5.05;0.80;;;24.60;99.90;;;;;;4990164;28;20217;-78
2023/12/23 07:11:21;;;;;;;5.47;1.00;;;24.50;99.90;;;;;;4996338;28;20219;-77
2023/12/23 07:13:50;;;;;;;5.47;1.00;;;24.40;99.90;;;;;;4999558;28;20215;-77
2023/12/23 07:16:21;;;;;;;3.67;0.90;;;24.30;99.90;;;;;;4975127;28;20215;-76
2023/12/23 07:18:52;;;;;;;4.53;1.02;;;24.10;99.90;;;;;;4973504;28;20224;-76
2023/12/23 07:21:23;;;;;;;3.33;0.75;;;24.00;99.90;;;;;;4988472;28;20227;-77
2023/12/23 07:23:56;;;;;;;2.75;0.80;;;24.00;99.90;;;;;;4980022;28;20231;-77
2023/12/23 07:26:26;;;;;;;3.60;0.80;;;23.90;99.90;;;;;;4983532;28;20285;-77
2023/12/23 07:28:57;;;;;;;4.45;0.98;;;23.90;99.90;;;;;;4993631;28;20205;-77
2023/12/23 07:31:32;;;;;;;3.85;1.00;;;23.90;99.90;;;;;;4984985;28;20622;-78
2023/12/23 07:34:02;;;;;;;3.08;0.88;;;23.90;99.90;;;;;;4974996;28;20615;-77
2023/12/23 07:36:33;;;;;;;2.50;0.70;;;23.90;99.90;;;;;;4976410;28;20539;-77
2023/12/23 07:39:06;;;;;;;3.22;0.80;;;23.80;99.90;;;;;;4978822;28;20221;-77
2023/12/23 07:41:37;;;;;;;4.28;0.90;;;23.90;99.90;;;;;;4972370;28;20200;-77
2023/12/23 07:44:08;;;;;;;3.47;1.10;;;23.80;99.90;;;;;;4979444;28;20227;-77
2023/12/23 07:46:39;;;;;;;3.25;0.90;;;23.80;99.90;;;;;;4984120;28;20223;-77
2023/12/23 07:49:10;;;;;;;6.53;0.98;;;23.70;99.90;;;;;;4988595;28;20205;-77
2023/12/23 07:51:41;;;;;;;3.92;0.88;;;23.80;99.90;;;;;;4980369;28;20222;-77
2023/12/23 07:54:14;;;;;;;3.33;0.80;;;23.80;99.90;;;;;;4987774;28;20229;-77
2023/12/23 07:56:44;;;;;;;4.55;1.08;;;23.70;99.90;;;;;;4990232;28;20238;-76
2023/12/23 07:59:15;;;;;;;4.63;0.90;;;23.70;99.90;;;;;;4989760;28;20203;-76
2023/12/23 08:01:49;;;;;;;4.28;0.75;;;23.80;99.90;;;;;;4974921;28;20210;-76
2023/12/23 08:04:20;;;;;;;4.25;0.95;;;23.80;99.90;;;;;;4986781;28;20223;-78
2023/12/23 08:06:54;;;;;;;5.32;0.93;;;23.70;99.90;;;;;;4992349;28;20702;-77
2023/12/23 08:09:30;;;;;;;4.03;0.82;;;23.70;99.90;;;;;;4986202;28;20214;-77
2023/12/23 08:12:00;;;;;;;2.38;0.70;;;23.70;99.90;;;;;;4977995;28;20215;-77
2023/12/23 08:14:31;;;;;;;3.97;0.90;;;23.70;99.90;;;;;;4978149;28;20229;-76
2023/12/23 08:17:02;;;;;;;6.72;1.00;;;23.60;99.90;;;;;;4978699;28;20662;-76
2023/12/23 08:19:33;;;;;;;3.45;1.10;;;23.50;99.90;;;;;;4986593;28;20243;-77
2023/12/23 08:22:03;;;;;;;6.85;1.27;;;23.50;99.90;;;;;;4980722;28;20223;-77
2023/12/23 08:24:36;;;;;;;3.42;0.90;;;23.50;99.90;;;;;;4967686;28;20226;-76
2023/12/23 08:27:07;;;;;;;5.13;1.00;;;23.40;99.90;;;;;;4973604;28;20689;-77
2023/12/23 08:29:38;;;;;;;5.65;1.17;;;23.40;99.90;;;;;;4979863;28;20195;-77
2023/12/23 08:32:09;;;;;;;4.50;1.02;;;23.40;99.90;;;;;;4981769;28;20199;-77
2023/12/23 08:34:40;;;;;;;6.18;1.00;;;23.40;99.90;;;;;;4974392;28;20191;-77
2023/12/23 08:37:11;;;;;;;2.15;0.70;;;23.40;99.90;;;;;;4991962;28;20680;-78
2023/12/23 08:39:44;;;;;;;3.63;1.15;;;23.30;99.90;;;;;;4988981;28;20195;-77
2023/12/23 08:42:15;;;;;;;8.10;2.70;;;23.30;99.90;;;;;;4988771;28;20195;-78
2023/12/23 08:44:46;;;;;;;12.02;8.15;;;23.30;99.90;;;;;;4987548;28;20300;-78
2023/12/23 08:47:16;;;;;;;9.00;4.53;;;23.30;99.90;;;;;;4980335;28;20225;-77
2023/12/23 08:49:47;;;;;;;11.48;7.63;;;23.20;99.90;;;;;;4980910;28;20219;-80
2023/12/23 08:52:18;;;;;;;9.55;7.25;;;23.30;99.90;;;;;;4978539;28;20221;-79
2023/12/23 08:54:51;;;;;;;8.00;4.65;;;23.30;99.90;;;;;;4989470;28;20217;-79
2023/12/23 08:57:22;;;;;;;4.88;1.90;;;23.20;99.90;;;;;;4981749;28;20222;-77
2023/12/23 08:59:52;;;;;;;5.63;2.40;;;23.30;99.90;;;;;;4988025;28;20314;-78
2023/12/23 09:02:23;;;;;;;3.72;1.50;;;23.30;99.90;;;;;;4973059;28;20589;-77
2023/12/23 09:04:54;;;;;;;5.78;3.42;;;23.30;99.90;;;;;;4996377;28;20304;-77
2023/12/23 09:07:25;;;;;;;6.38;3.97;;;23.20;99.90;;;;;;5002977;28;20218;-77
2023/12/23 09:09:58;;;;;;;6.53;3.78;;;23.20;99.90;;;;;;4997351;28;20832;-78
2023/12/23 09:12:28;;;;;;;10.02;6.10;;;23.30;99.90;;;;;;5001275;28;20219;-77
2023/12/23 09:14:59;;;;;;;13.77;10.52;;;23.30;99.90;;;;;;4993042;28;20700;-76
2023/12/23 09:17:30;;;;;;;10.15;5.88;;;23.20;99.90;;;;;;4995852;28;20217;-77
2023/12/23 09:20:01;;;;;;;11.70;3.50;;;23.20;99.90;;;;;;4989151;28;20452;-80
2023/12/23 09:22:31;;;;;;;6.13;4.45;;;23.20;99.90;;;;;;4996322;28;20204;-78
2023/12/23 09:25:04;;;;;;;6.63;4.18;;;23.20;99.90;;;;;;5025609;28;20215;-75
2023/12/23 09:27:35;;;;;;;5.05;2.30;;;23.10;99.90;;;;;;5027410;28;20218;-78
2023/12/23 09:30:06;;;;;;;5.22;1.40;;;23.10;99.90;;;;;;5014705;28;20716;-77
2023/12/23 09:32:37;;;;;;;4.43;1.20;;;23.10;99.90;;;;;;4978064;28;20612;-77
2023/12/23 09:35:08;;;;;;;5.38;1.80;;;23.10;99.90;;;;;;4989023;28;20219;-78
2023/12/23 09:37:39;;;;;;;4.07;1.55;;;23.10;99.90;;;;;;4988805;28;20203;-77
2023/12/23 09:40:13;;;;;;;6.57;2.92;;;23.00;99.90;;;;;;4973669;28;20260;-78
2023/12/23 09:42:44;;;;;;;20.85;14.02;;;23.00;99.90;;;;;;4970334;28;20195;-78
2023/12/23 09:45:18;;;;;;;15.77;9.43;;;23.00;99.90;;;;;;4981379;28;20226;-79
2023/12/23 09:47:48;;;;;;;8.68;3.55;;;23.10;99.90;;;;;;4985485;28;20255;-79
2023/12/23 09:50:19;;;;;;;10.77;5.63;;;23.10;99.90;;;;;;4995917;28;20240;-79
2023/12/23 09:52:53;;;;;;;5.28;2.50;;;23.10;99.90;;;;;;4983126;28;20199;-79
2023/12/23 09:55:28;;;;;;;5.35;1.92;;;23.10;99.90;;;;;;4985074;28;20195;-78
2023/12/23 09:57:59;;;;;;;2.53;1.08;;;23.00;99.90;;;;;;4984505;28;20210;-79
2023/12/23 10:00:30;;;;;;;2.83;0.90;;;23.00;99.90;;;;;;4980871;28;20192;-79
2023/12/23 10:03:01;;;;;;;6.72;4.15;;;23.00;99.90;;;;;;4978834;28;20550;-79
2023/12/23 10:05:34;;;;;;;5.65;2.35;;;23.00;99.90;;;;;;4974149;28;20742;-80
2023/12/23 10:08:05;;;;;;;4.78;1.02;;;23.00;99.90;;;;;;4986787;28;20201;-79
2023/12/23 10:10:38;;;;;;;5.88;1.17;;;23.00;99.90;;;;;;4980164;28;20190;-80
2023/12/23 10:13:09;;;;;;;4.97;1.70;;;23.10;99.90;;;;;;4982535;28;20667;-79
2023/12/23 10:15:42;;;;;;;3.45;1.30;;;23.10;99.90;;;;;;4981795;28;20231;-80
2023/12/23 10:18:15;;;;;;;6.38;1.13;;;23.10;99.90;;;;;;4987252;28;21008;-80
2023/12/23 10:20:46;;;;;;;3.90;1.08;;;23.10;99.90;;;;;;4969557;28;20231;-79
2023/12/23 10:23:17;;;;;;;2.90;0.73;;;23.00;99.90;;;;;;4987262;28;20281;-79
2023/12/23 10:25:50;;;;;;;2.15;0.88;;;23.00;99.90;;;;;;4981489;28;20234;-79
2023/12/23 10:28:24;;;;;;;5.07;1.35;;;23.00;99.90;;;;;;4986069;28;20214;-79
2023/12/23 10:30:58;;;;;;;4.30;1.10;;;23.00;99.90;;;;;;4987947;28;20202;-79
2023/12/23 10:33:32;;;;;;;3.90;1.00;;;23.00;99.90;;;;;;4987906;28;20275;-79
2023/12/23 10:36:04;;;;;;;5.65;2.30;;;23.00;99.90;;;;;;5029132;28;20669;-79
2023/12/23 10:38:36;;;;;;;7.60;1.85;;;23.00;99.90;;;;;;5033329;28;20197;-80
2023/12/23 10:41:19;;;;;;;5.00;1.58;;;23.00;99.90;;;;;;4997540;28;20222;-80
2023/12/23 10:43:51;;;;;;;2.92;1.00;;;23.00;99.90;;;;;;4987509;28;20244;-78
2023/12/23 10:46:23;;;;;;;2.38;1.00;;;23.00;99.90;;;;;;4980004;28;20227;-80
2023/12/23 10:48:56;;;;;;;3.40;1.02;;;23.00;99.90;;;;;;4986629;28;20740;-79
2023/12/23 10:51:27;;;;;;;3.85;1.90;;;23.00;99.90;;;;;;4999438;28;20274;-81
2023/12/23 10:53:59;;;;;;;8.90;4.20;;;23.00;99.90;;;;;;4991035;28;20222;-78
2023/12/23 10:56:33;;;;;;;3.22;1.50;;;23.00;99.90;;;;;;4980210;28;20199;-77
2023/12/23 10:59:04;;;;;;;6.38;3.80;;;23.10;99.90;;;;;;4976951;28;20203;-77
2023/12/23 11:01:36;;;;;;;6.82;2.00;;;23.10;99.90;;;;;;4979167;28;20202;-76
2023/12/23 11:04:07;;;;;;;6.15;1.70;;;23.10;99.90;;;;;;4978866;28;20620;-78
2023/12/23 11:06:42;;;;;;;3.25;1.20;;;23.10;99.90;;;;;;4975905;28;20229;-78
2023/12/23 11:09:15;;;;;;;4.03;1.15;;;23.00;99.90;;;;;;4983087;28;20221;-78
2023/12/23 11:11:49;;;;;;;4.00;1.20;;;23.00;99.90;;;;;;4981958;28;20598;-79
2023/12/23 11:14:23;;;;;;;4.80;1.20;;;23.00;99.90;;;;;;4985094;28;20306;-79
2023/12/23 11:16:57;;;;;;;3.70;1.48;;;22.90;99.90;;;;;;4983272;28;20224;-79
2023/12/23 11:19:29;;;;;;;3.70;1.17;;;22.90;99.90;;;;;;4979915;28;20262;-79
2023/12/23 11:22:25;;;;;;;3.00;1.30;;;22.90;99.90;;;;;;4981481;28;20705;-79
2023/12/23 11:24:56;;;;;;;6.50;1.40;;;22.90;99.90;;;;;;4988103;28;20314;-79
2023/12/23 11:27:39;;;;;;;5.68;1.73;;;22.90;99.90;;;;;;4995885;28;20658;-79
2023/12/23 11:30:11;;;;;;;5.88;1.30;;;22.90;99.90;;;;;;4987033;28;20564;-79
2023/12/23 11:32:44;;;;;;;3.53;1.30;;;22.90;99.90;;;;;;4971590;28;20202;-80
2023/12/23 11:35:15;;;;;;;5.10;2.38;;;22.90;99.90;;;;;;4981073;28;20203;-80
2023/12/23 11:37:57;;;;;;;5.15;1.58;;;22.90;99.90;;;;;;4987413;28;20222;-79
2023/12/23 11:40:30;;;;;;;4.30;1.77;;;22.90;99.90;;;;;;4991411;28;20217;-79
2023/12/23 11:43:03;;;;;;;4.32;1.30;;;22.90;99.90;;;;;;4997320;28;20719;-80
2023/12/23 11:45:34;;;;;;;4.25;1.45;;;22.90;99.90;;;;;;4992342;28;20230;-79
2023/12/23 11:48:05;;;;;;;4.28;1.13;;;22.90;99.90;;;;;;4993256;28;20219;-79
2023/12/23 11:50:35;;;;;;;3.47;0.90;;;22.90;99.90;;;;;;4990339;28;20225;-79
2023/12/23 11:53:06;;;;;;;4.88;1.13;;;22.90;99.90;;;;;;4976648;28;20203;-79
2023/12/23 11:55:41;;;;;;;5.25;1.50;;;22.90;99.90;;;;;;4985527;28;20223;-80
2023/12/23 11:58:16;;;;;;;3.55;0.80;;;22.90;99.90;;;;;;5004986;28;20230;-79
2023/12/23 12:00:53;;;;;;;2.33;0.90;;;22.80;99.90;;;;;;4992083;28;20224;-79
2023/12/23 12:03:26;;;;;;;4.70;0.90;;;22.90;99.90;;;;;;4972488;28;20262;-79
2023/12/23 12:06:00;;;;;;;3.42;1.10;;;22.90;99.90;;;;;;5003050;28;20224;-78
2023/12/23 12:08:31;;;;;;;3.40;0.80;;;22.90;99.90;;;;;;4981458;28;20257;-80
2023/12/23 12:11:04;;;;;;;3.72;0.70;;;22.90;99.90;;;;;;4986330;28;20209;-78
2023/12/23 12:13:38;;;;;;;3.45;0.95;;;22.90;99.90;;;;;;4975553;28;20300;-79
2023/12/23 12:16:09;;;;;;;2.45;0.70;;;22.80;99.90;;;;;;4973713;28;20214;-80
2023/12/23 12:18:43;;;;;;;4.18;0.90;;;22.80;99.90;;;;;;4988551;28;20221;-79
2023/12/23 12:21:12;;;;;;;3.88;0.70;;;22.90;99.90;;;;;;4976831;28;20635;-80
2023/12/23 12:23:43;;;;;;;3.03;0.70;;;22.90;99.90;;;;;;4986065;28;20215;-79
2023/12/23 12:26:15;;;;;;;5.13;0.80;;;22.90;99.90;;;;;;5001707;28;20226;-80
2023/12/23 12:28:48;;;;;;;2.92;0.70;;;22.90;99.90;;;;;;5001879;28;20308;-80
2023/12/23 12:31:20;;;;;;;5.00;0.75;;;22.80;99.90;;;;;;4978487;28;20697;-78
2023/12/23 12:33:51;;;;;;;4.05;0.70;;;22.80;99.90;;;;;;4993770;28;20218;-78
2023/12/23 12:36:22;;;;;;;2.00;0.50;;;22.80;99.90;;;;;;4989104;28;20232;-79
2023/12/23 12:38:53;;;;;;;3.53;0.90;;;22.80;99.90;;;;;;4981937;28;20254;-79
2023/12/23 12:41:24;;;;;;;1.85;0.60;;;22.80;99.90;;;;;;4988641;28;20214;-78
2023/12/23 12:44:01;;;;;;;4.43;0.80;;;22.80;99.90;;;;;;4985072;28;21307;-79
2023/12/23 12:46:35;;;;;;;4.10;0.88;;;22.80;99.90;;;;;;4991693;28;20241;-79
2023/12/23 12:49:07;;;;;;;2.75;0.68;;;22.80;99.90;;;;;;4988709;28;20301;-79
2023/12/23 12:51:40;;;;;;;4.28;0.75;;;22.80;99.90;;;;;;5035097;28;20214;-79
2023/12/23 12:54:11;;;;;;;5.30;1.17;;;22.80;99.90;;;;;;4990759;28;20599;-79
2023/12/23 12:56:43;;;;;;;5.10;0.98;;;22.80;99.90;;;;;;4975117;28;20784;-80
2023/12/23 12:59:17;;;;;;;4.75;0.85;;;22.80;99.90;;;;;;4975790;28;20330;-79
2023/12/23 13:01:49;;;;;;;2.33;0.98;;;22.80;99.90;;;;;;4984256;28;20254;-80
2023/12/23 13:04:19;;;;;;;2.80;0.90;;;22.80;99.90;;;;;;4983568;28;20279;-78
2023/12/23 13:06:50;;;;;;;4.57;0.90;;;22.70;99.90;;;;;;4985444;28;20231;-79
2023/12/23 13:09:21;;;;;;;4.70;0.95;;;22.70;99.90;;;;;;5046546;28;20226;-81